createdAt,value
2023-03-06T00:01:52.513Z,9.18
2023-03-06T00:06:45.978Z,9.23
2023-03-06T00:11:40.181Z,10.85
2023-03-06T00:16:33.378Z,10.85
2023-03-06T00:21:26.513Z,10.23
2023-03-06T00:26:19.695Z,10.77
2023-03-06T00:31:13.783Z,10.35
2023-03-06T00:36:06.725Z,11.10
2023-03-06T00:40:59.223Z,10.13
2023-03-06T00:45:54.991Z,9.75
2023-03-06T00:50:47.049Z,10.55
2023-03-06T00:55:40.963Z,9.52
2023-03-06T01:00:33.705Z,10.98
2023-03-06T01:05:26.965Z,11.13
2023-03-06T01:10:21.396Z,12.02
2023-03-06T01:15:15.194Z,10.95
2023-03-06T01:20:10.960Z,11.20
2023-03-06T01:25:04.362Z,12.40
2023-03-06T01:29:57.863Z,11.77
2023-03-06T01:34:50.440Z,11.23
2023-03-06T01:39:43.115Z,12.73
2023-03-06T01:44:35.541Z,12.27
2023-03-06T01:49:46.449Z,14.18
2023-03-06T01:54:40.293Z,12.32
2023-03-06T01:59:34.662Z,13.68
2023-03-06T02:04:27.824Z,13.18
2023-03-06T02:09:20.859Z,12.50
2023-03-06T02:14:15.860Z,13.82
2023-03-06T02:19:37.252Z,12.48
2023-03-06T02:24:47.473Z,11.48
2023-03-06T02:29:40.705Z,11.48
2023-03-06T02:34:39.559Z,13.80
2023-03-06T02:39:34.933Z,12.17
2023-03-06T02:44:28.499Z,10.90
2023-03-06T02:49:21.896Z,11.27
2023-03-06T02:54:15.182Z,14.00
2023-03-06T02:59:08.429Z,11.82
2023-03-06T03:04:01.289Z,13.68
2023-03-06T03:08:54.773Z,14.38
2023-03-06T03:13:48.970Z,12.77
2023-03-06T03:18:51.409Z,12.75
2023-03-06T03:23:47.689Z,13.48
2023-03-06T03:28:39.899Z,13.05
2023-03-06T03:33:33.376Z,12.30
2023-03-06T03:38:26.796Z,13.27
2023-03-06T03:43:20.529Z,12.77
2023-03-06T03:48:13.281Z,12.07
2023-03-06T03:53:07.926Z,13.05
2023-03-06T03:58:01.409Z,13.80
2023-03-06T04:02:54.622Z,13.52
2023-03-06T04:07:53.823Z,14.05
2023-03-06T04:12:47.992Z,12.43
2023-03-06T04:17:42.060Z,14.77
2023-03-06T04:22:40.459Z,14.27
2023-03-06T04:27:34.440Z,12.77
2023-03-06T04:32:28.457Z,11.82
2023-03-06T04:37:25.738Z,13.95
2023-03-06T04:42:19.938Z,13.40
2023-03-06T04:47:12.748Z,14.20
2023-03-06T04:52:07.231Z,12.63
2023-03-06T04:57:00.486Z,10.95
2023-03-06T05:01:53.000Z,10.88
2023-03-06T05:06:46.459Z,10.70
2023-03-06T05:11:39.717Z,10.02
2023-03-06T05:16:33.115Z,9.90
2023-03-06T05:21:27.155Z,9.60
2023-03-06T05:26:20.278Z,10.45
2023-03-06T05:31:14.870Z,9.80
2023-03-06T05:36:09.340Z,8.82
2023-03-06T05:41:02.759Z,9.10
2023-03-06T05:46:03.122Z,8.70
2023-03-06T05:50:57.927Z,8.48
2023-03-06T05:56:01.461Z,8.98
2023-03-06T06:00:55.761Z,8.90
2023-03-06T06:05:49.035Z,8.45
2023-03-06T06:10:42.199Z,9.93
2023-03-06T06:15:35.783Z,8.57
2023-03-06T06:20:28.901Z,10.27
2023-03-06T06:25:21.516Z,9.95
2023-03-06T06:30:15.229Z,13.80
2023-03-06T06:35:09.072Z,10.02
2023-03-06T06:40:00.942Z,11.68
2023-03-06T06:44:54.740Z,11.35
2023-03-06T06:49:53.515Z,12.40
2023-03-06T06:54:46.831Z,15.25
2023-03-06T06:59:40.883Z,13.07
2023-03-06T07:04:34.517Z,12.55
2023-03-06T07:09:27.790Z,12.55
2023-03-06T07:14:20.856Z,11.23
2023-03-06T07:19:15.039Z,16.73
2023-03-06T07:24:08.409Z,11.88
2023-03-06T07:29:01.771Z,11.15
2023-03-06T07:33:56.155Z,11.88
2023-03-06T07:38:49.163Z,11.27
2023-03-06T07:43:43.197Z,11.75
2023-03-06T07:48:38.042Z,9.52
2023-03-06T07:53:32.375Z,11.23
2023-03-06T07:58:25.775Z,8.52
2023-03-06T08:03:18.723Z,9.43
2023-03-06T08:08:12.528Z,9.60
2023-03-06T08:13:06.280Z,9.70
2023-03-06T08:18:00.573Z,8.65
2023-03-06T08:22:54.535Z,10.48
2023-03-06T08:27:47.859Z,9.75
2023-03-06T08:32:41.650Z,7.32
2023-03-06T08:37:36.025Z,9.00
2023-03-06T08:42:29.356Z,9.02
2023-03-06T08:47:23.562Z,8.23
2023-03-06T08:52:17.637Z,9.18
2023-03-06T08:57:09.454Z,8.85
2023-03-06T09:02:04.693Z,10.15
2023-03-06T09:06:57.861Z,7.05
2023-03-06T09:11:51.785Z,6.22
2023-03-06T09:16:45.915Z,5.47
2023-03-06T09:21:39.462Z,6.53
2023-03-06T09:26:45.004Z,6.55
2023-03-06T09:31:38.636Z,6.70
2023-03-06T09:36:42.768Z,5.78
2023-03-06T09:41:42.378Z,5.22
2023-03-06T09:46:46.485Z,5.50
2023-03-06T09:52:00.784Z,5.55
2023-03-06T09:56:56.103Z,6.07
2023-03-06T10:02:12.349Z,5.45
2023-03-06T10:07:09.912Z,6.65
2023-03-06T10:12:06.793Z,8.52
2023-03-06T10:16:59.133Z,8.73
2023-03-06T10:22:01.274Z,7.22
2023-03-06T10:27:16.572Z,11.77
2023-03-06T10:32:39.538Z,14.00
2023-03-06T10:37:45.021Z,8.30
2023-03-06T10:42:39.518Z,5.85
2023-03-06T10:47:35.496Z,5.82
2023-03-06T10:52:35.739Z,6.88
2023-03-06T10:57:31.847Z,5.50
2023-03-06T11:02:34.282Z,5.75
2023-03-06T11:07:52.575Z,5.47
2023-03-06T11:13:00.071Z,5.80
2023-03-06T11:18:01.167Z,5.88
2023-03-06T11:22:57.926Z,5.63
2023-03-06T11:27:58.281Z,5.47
2023-03-06T11:33:02.168Z,4.55
2023-03-06T11:38:15.338Z,4.95
2023-03-06T11:43:23.476Z,5.97
2023-03-06T11:53:15.105Z,6.35
2023-03-06T11:58:19.248Z,7.22
2023-03-06T12:03:34.885Z,4.65
2023-03-06T12:09:01.741Z,3.83
2023-03-06T12:14:20.473Z,3.22
2023-03-06T12:24:43.845Z,5.95
2023-03-06T12:30:14.221Z,5.68
2023-03-06T12:35:39.698Z,4.80
2023-03-06T12:40:56.245Z,5.50
2023-03-06T12:46:10.750Z,5.50
2023-03-06T12:51:06.356Z,4.47
2023-03-06T12:56:00.688Z,5.40
2023-03-06T13:01:03.674Z,6.07
2023-03-06T13:06:25.296Z,4.70
2023-03-06T13:11:43.783Z,6.50
2023-03-06T13:16:36.650Z,4.77
2023-03-06T13:21:57.522Z,4.90
2023-03-06T13:26:55.977Z,4.72
2023-03-06T13:31:55.324Z,5.60
2023-03-06T13:41:42.958Z,4.63
2023-03-06T13:46:38.012Z,5.05
2023-03-06T13:51:37.534Z,5.22
2023-03-06T13:56:45.093Z,4.78
2023-03-06T14:01:40.765Z,4.95
2023-03-06T14:06:36.251Z,4.78
2023-03-06T14:11:28.561Z,5.68
2023-03-06T14:16:24.977Z,4.55
2023-03-06T14:21:31.837Z,5.13
2023-03-06T14:26:26.443Z,5.40
2023-03-06T14:31:21.946Z,4.18
2023-03-06T14:36:16.528Z,6.10
2023-03-06T14:41:12.961Z,4.60
2023-03-06T14:46:08.350Z,5.82
2023-03-06T14:51:02.910Z,4.13
2023-03-06T14:56:01.625Z,6.25
2023-03-06T15:00:57.451Z,4.72
2023-03-06T15:05:51.810Z,4.10
2023-03-06T15:10:59.243Z,3.28
2023-03-06T15:16:09.914Z,3.58
2023-03-06T15:21:22.190Z,3.40
2023-03-06T15:26:23.234Z,3.53
2023-03-06T15:31:25.040Z,4.72
2023-03-06T15:36:22.182Z,3.30
2023-03-06T15:41:24.204Z,3.25
2023-03-06T15:46:16.869Z,3.47
2023-03-06T15:51:10.830Z,3.80
2023-03-06T15:56:04.387Z,4.40
2023-03-06T16:00:58.128Z,3.63
2023-03-06T16:05:52.041Z,3.00
2023-03-06T16:10:45.240Z,3.88
2023-03-06T16:15:42.929Z,4.03
2023-03-06T16:20:35.557Z,3.88
2023-03-06T16:25:28.518Z,3.88
2023-03-06T16:30:22.027Z,3.20
2023-03-06T16:35:15.930Z,3.97
2023-03-06T16:40:15.851Z,3.35
2023-03-06T16:45:10.107Z,3.63
2023-03-06T16:50:04.276Z,4.13
2023-03-06T16:54:57.392Z,5.10
2023-03-06T16:59:50.348Z,2.80
2023-03-06T17:04:43.092Z,3.58
2023-03-06T17:09:37.401Z,4.43
2023-03-06T17:14:30.603Z,3.25
2023-03-06T17:19:24.487Z,2.80
2023-03-06T17:24:17.558Z,3.20
2023-03-06T17:29:12.421Z,3.65
2023-03-06T17:34:05.981Z,3.13
2023-03-06T17:39:01.288Z,3.13
2023-03-06T17:43:56.735Z,2.75
2023-03-06T17:48:49.783Z,2.88
2023-03-06T17:53:43.153Z,3.25
2023-03-06T17:58:36.579Z,2.50
2023-03-06T18:03:29.868Z,2.83
2023-03-06T18:08:22.840Z,2.97
2023-03-06T18:13:16.363Z,3.42
2023-03-06T18:18:09.720Z,3.20
2023-03-06T18:23:04.385Z,3.13
2023-03-06T18:27:58.128Z,2.60
2023-03-06T18:32:51.547Z,2.80
2023-03-06T18:37:44.406Z,2.75
2023-03-06T18:42:37.402Z,2.85
2023-03-06T18:47:30.732Z,3.15
2023-03-06T18:52:24.101Z,3.47
2023-03-06T18:57:17.539Z,3.30
2023-03-06T19:02:11.627Z,3.25
2023-03-06T19:07:06.377Z,4.18
2023-03-06T19:12:00.159Z,15.25
2023-03-06T19:16:54.006Z,5.78
2023-03-06T19:21:47.919Z,4.78
2023-03-06T19:26:42.570Z,3.85
2023-03-06T19:31:36.162Z,4.40
2023-03-06T19:36:33.659Z,3.92
2023-03-06T19:41:27.915Z,6.93
2023-03-06T19:46:21.989Z,32.78
2023-03-06T19:51:16.178Z,40.25
2023-03-06T19:56:23.463Z,5.97
2023-03-06T20:01:19.010Z,5.00
2023-03-06T20:06:18.687Z,26.20
2023-03-06T20:16:16.073Z,6.30
2023-03-06T20:21:09.225Z,8.88
2023-03-06T20:26:06.980Z,7.25
2023-03-06T20:30:59.903Z,10.82
2023-03-06T20:35:53.229Z,10.48
2023-03-06T20:40:47.001Z,11.38
2023-03-06T20:45:40.970Z,18.73
2023-03-06T20:50:34.380Z,17.95
2023-03-06T20:55:28.186Z,15.50
2023-03-06T21:00:22.520Z,16.58
2023-03-06T21:05:16.104Z,16.52
2023-03-06T21:10:11.731Z,16.27
2023-03-06T21:15:05.865Z,14.05
2023-03-06T21:19:58.974Z,12.45
2023-03-06T21:24:52.613Z,20.73
2023-03-06T21:29:47.268Z,17.33
2023-03-06T21:34:40.476Z,11.02
2023-03-06T21:39:33.863Z,8.60
2023-03-06T21:44:26.831Z,9.32
2023-03-06T21:49:23.099Z,7.57
2023-03-06T21:54:17.191Z,8.73
2023-03-06T21:59:10.621Z,8.57
2023-03-06T22:04:03.890Z,9.90
2023-03-06T22:08:58.807Z,9.18
2023-03-06T22:13:53.441Z,10.55
2023-03-06T22:18:52.147Z,10.32
2023-03-06T22:23:44.611Z,10.73
2023-03-06T22:28:38.247Z,9.70
2023-03-06T22:33:31.413Z,9.63
2023-03-06T22:38:25.354Z,9.70
2023-03-06T22:43:20.530Z,9.13
2023-03-06T22:48:14.053Z,8.90
2023-03-06T22:53:07.191Z,8.88
2023-03-06T22:58:00.728Z,9.77
2023-03-06T23:02:54.280Z,9.15
2023-03-06T23:07:46.855Z,8.30
2023-03-06T23:12:42.035Z,9.18
2023-03-06T23:17:53.362Z,9.13
2023-03-06T23:23:05.006Z,8.60
2023-03-06T23:28:07.913Z,9.10
2023-03-06T23:33:01.958Z,8.57
2023-03-06T23:37:54.934Z,9.00
2023-03-06T23:42:48.189Z,7.97
2023-03-06T23:47:41.014Z,8.90
2023-03-06T23:52:34.581Z,6.40
2023-03-06T23:57:28.102Z,5.78
